Strona główna
METAR-TAF:

METAR-TAF

Lotnisko :

Alpnach, Szwajcaria

Szerokość geograficzna: 46-56-19N, Długość geograficzna: 8-17-03E, wysokość: 440 m

Aktualna obserwacja pogody

Raport powstał 34 minut temu, godzina 19:20 UTC
Wiatr 5 kt od południowo-południowy zachód
Temperatura 5°C
Wilgotność 87%
Ciśnienie 1010 hPa
Widzialność 10 km lub więcej
Rozproszone chmury na wysokości 11000 ft
Zachmurzenie całkowite na wysokości 14000 ft

METAR: LSMA 081920Z AUTO 21005KT 9999NDV SCT110 OVC140 05/03 Q1010 RMK

czas: 20:54 (19:54 UTC)


TAF: brakujący

Obserwacja i prognoza pogody dla ponad 4000 lotnisk (raport METAR i TAF).

Dostępne stacje oznaczono żółtymi i czerwonymi punktami na mapie.

Najedź kursorem aby zobaczyć nazwę stacji.

Kliknij aby zobaczyć obserwacje i prognozy pogody.

Aby zmienić mapę: kliknij na zielony przycisk z czarnym krzyżykiem, aby powiększyć; na zielony przycisk z myślnikiem, aby pomniejszyć; na zielone strzałki, aby przejść do map sąsiednich.


METAR-TAF: